sensor_id;sensor_type;location;lat;lon;timestamp;P1;durP1;ratioP1;P2;durP2;ratioP2
7693;SDS011;3889;48.162;11.510;2022-07-26T00:00:59;6.53;;;4.28;;
7693;SDS011;3889;48.162;11.510;2022-07-26T00:03:27;5.30;;;4.30;;
7693;SDS011;3889;48.162;11.510;2022-07-26T00:05:54;5.30;;;3.93;;
7693;SDS011;3889;48.162;11.510;2022-07-26T00:08:23;6.07;;;4.07;;
7693;SDS011;3889;48.162;11.510;2022-07-26T00:10:51;5.93;;;4.20;;
7693;SDS011;3889;48.162;11.510;2022-07-26T00:13:20;5.57;;;4.40;;
7693;SDS011;3889;48.162;11.510;2022-07-26T00:15:48;5.55;;;4.28;;
7693;SDS011;3889;48.162;11.510;2022-07-26T00:18:16;4.75;;;3.95;;
7693;SDS011;3889;48.162;11.510;2022-07-26T00:20:45;5.43;;;4.43;;
7693;SDS011;3889;48.162;11.510;2022-07-26T00:23:13;4.93;;;4.43;;
7693;SDS011;3889;48.162;11.510;2022-07-26T00:25:41;5.80;;;4.78;;
7693;SDS011;3889;48.162;11.510;2022-07-26T00:28:09;5.60;;;4.53;;
7693;SDS011;3889;48.162;11.510;2022-07-26T00:30:39;5.10;;;4.57;;
7693;SDS011;3889;48.162;11.510;2022-07-26T00:33:06;6.82;;;4.88;;
7693;SDS011;3889;48.162;11.510;2022-07-26T00:35:34;5.82;;;4.53;;
7693;SDS011;3889;48.162;11.510;2022-07-26T00:38:02;5.97;;;4.32;;
7693;SDS011;3889;48.162;11.510;2022-07-26T00:40:31;5.82;;;4.57;;
7693;SDS011;3889;48.162;11.510;2022-07-26T00:42:59;7.72;;;5.30;;
7693;SDS011;3889;48.162;11.510;2022-07-26T00:45:27;5.63;;;4.70;;
7693;SDS011;3889;48.162;11.510;2022-07-26T00:47:56;4.80;;;4.30;;
7693;SDS011;3889;48.162;11.510;2022-07-26T00:50:24;5.95;;;4.78;;
7693;SDS011;3889;48.162;11.510;2022-07-26T00:52:52;6.20;;;4.70;;
7693;SDS011;3889;48.162;11.510;2022-07-26T00:55:20;5.50;;;4.30;;
7693;SDS011;3889;48.162;11.510;2022-07-26T00:57:48;4.95;;;4.45;;
7693;SDS011;3889;48.162;11.510;2022-07-26T01:00:17;6.70;;;4.65;;
7693;SDS011;3889;48.162;11.510;2022-07-26T01:02:48;5.78;;;4.95;;
7693;SDS011;3889;48.162;11.510;2022-07-26T01:05:17;4.82;;;4.32;;
7693;SDS011;3889;48.162;11.510;2022-07-26T01:07:45;5.20;;;4.37;;
7693;SDS011;3889;48.162;11.510;2022-07-26T01:10:15;4.75;;;4.28;;
7693;SDS011;3889;48.162;11.510;2022-07-26T01:12:43;5.28;;;4.57;;
7693;SDS011;3889;48.162;11.510;2022-07-26T01:15:12;6.53;;;4.55;;
7693;SDS011;3889;48.162;11.510;2022-07-26T01:17:41;6.00;;;4.68;;
7693;SDS011;3889;48.162;11.510;2022-07-26T01:20:10;5.93;;;4.60;;
7693;SDS011;3889;48.162;11.510;2022-07-26T01:22:41;4.55;;;4.10;;
7693;SDS011;3889;48.162;11.510;2022-07-26T01:25:09;5.30;;;4.57;;
7693;SDS011;3889;48.162;11.510;2022-07-26T01:27:37;4.88;;;4.38;;
7693;SDS011;3889;48.162;11.510;2022-07-26T01:30:06;5.68;;;4.45;;
7693;SDS011;3889;48.162;11.510;2022-07-26T01:32:36;5.13;;;4.60;;
7693;SDS011;3889;48.162;11.510;2022-07-26T01:35:05;5.65;;;4.15;;
7693;SDS011;3889;48.162;11.510;2022-07-26T01:37:33;4.30;;;3.90;;
7693;SDS011;3889;48.162;11.510;2022-07-26T01:40:04;5.72;;;4.00;;
7693;SDS011;3889;48.162;11.510;2022-07-26T01:42:34;4.18;;;3.72;;
7693;SDS011;3889;48.162;11.510;2022-07-26T01:45:06;4.50;;;3.75;;
7693;SDS011;3889;48.162;11.510;2022-07-26T01:47:35;5.07;;;3.60;;
7693;SDS011;3889;48.162;11.510;2022-07-26T01:50:03;3.83;;;3.35;;
7693;SDS011;3889;48.162;11.510;2022-07-26T01:52:33;3.97;;;3.40;;
7693;SDS011;3889;48.162;11.510;2022-07-26T01:55:04;4.32;;;3.20;;
7693;SDS011;3889;48.162;11.510;2022-07-26T01:57:32;3.55;;;3.13;;
7693;SDS011;3889;48.162;11.510;2022-07-26T02:00:00;3.60;;;2.90;;
7693;SDS011;3889;48.162;11.510;2022-07-26T02:02:29;4.20;;;3.55;;
7693;SDS011;3889;48.162;11.510;2022-07-26T02:04:57;3.50;;;3.20;;
7693;SDS011;3889;48.162;11.510;2022-07-26T02:07:25;4.20;;;3.30;;
7693;SDS011;3889;48.162;11.510;2022-07-26T02:09:54;3.95;;;3.55;;
7693;SDS011;3889;48.162;11.510;2022-07-26T02:12:24;4.72;;;3.50;;
7693;SDS011;3889;48.162;11.510;2022-07-26T02:14:52;3.70;;;3.35;;
7693;SDS011;3889;48.162;11.510;2022-07-26T02:17:20;4.53;;;3.67;;
7693;SDS011;3889;48.162;11.510;2022-07-26T02:19:48;3.88;;;3.47;;
7693;SDS011;3889;48.162;11.510;2022-07-26T02:22:17;4.00;;;3.60;;
7693;SDS011;3889;48.162;11.510;2022-07-26T02:24:45;4.15;;;3.42;;
7693;SDS011;3889;48.162;11.510;2022-07-26T02:27:15;3.97;;;3.03;;
7693;SDS011;3889;48.162;11.510;2022-07-26T02:29:44;4.10;;;3.67;;
7693;SDS011;3889;48.162;11.510;2022-07-26T02:32:12;3.83;;;3.20;;
7693;SDS011;3889;48.162;11.510;2022-07-26T02:34:40;4.38;;;3.63;;
7693;SDS011;3889;48.162;11.510;2022-07-26T02:37:08;4.05;;;3.45;;
7693;SDS011;3889;48.162;11.510;2022-07-26T02:39:36;4.88;;;3.65;;
7693;SDS011;3889;48.162;11.510;2022-07-26T02:42:04;3.53;;;3.20;;
7693;SDS011;3889;48.162;11.510;2022-07-26T02:44:32;5.35;;;3.60;;
7693;SDS011;3889;48.162;11.510;2022-07-26T02:47:03;5.35;;;3.95;;
7693;SDS011;3889;48.162;11.510;2022-07-26T02:49:31;6.18;;;3.70;;
7693;SDS011;3889;48.162;11.510;2022-07-26T02:51:59;4.15;;;3.75;;
7693;SDS011;3889;48.162;11.510;2022-07-26T02:54:26;4.03;;;3.57;;
7693;SDS011;3889;48.162;11.510;2022-07-26T02:56:54;4.23;;;3.30;;
7693;SDS011;3889;48.162;11.510;2022-07-26T02:59:23;4.43;;;3.40;;
7693;SDS011;3889;48.162;11.510;2022-07-26T03:01:51;4.53;;;3.50;;
7693;SDS011;3889;48.162;11.510;2022-07-26T03:04:20;4.82;;;3.40;;
7693;SDS011;3889;48.162;11.510;2022-07-26T03:06:48;4.53;;;3.40;;
7693;SDS011;3889;48.162;11.510;2022-07-26T03:09:16;4.60;;;3.47;;
7693;SDS011;3889;48.162;11.510;2022-07-26T03:11:44;3.88;;;3.13;;
7693;SDS011;3889;48.162;11.510;2022-07-26T03:14:12;4.57;;;3.38;;
7693;SDS011;3889;48.162;11.510;2022-07-26T03:16:40;4.88;;;3.55;;
7693;SDS011;3889;48.162;11.510;2022-07-26T03:19:07;3.72;;;3.42;;
7693;SDS011;3889;48.162;11.510;2022-07-26T03:21:37;4.82;;;3.50;;
7693;SDS011;3889;48.162;11.510;2022-07-26T03:24:05;4.47;;;3.20;;
7693;SDS011;3889;48.162;11.510;2022-07-26T03:26:33;4.60;;;3.25;;
7693;SDS011;3889;48.162;11.510;2022-07-26T03:29:01;3.83;;;3.40;;
7693;SDS011;3889;48.162;11.510;2022-07-26T03:31:29;5.07;;;3.45;;
7693;SDS011;3889;48.162;11.510;2022-07-26T03:33:57;4.10;;;3.45;;
7693;SDS011;3889;48.162;11.510;2022-07-26T03:36:28;4.93;;;3.17;;
7693;SDS011;3889;48.162;11.510;2022-07-26T03:38:57;4.38;;;3.83;;
7693;SDS011;3889;48.162;11.510;2022-07-26T03:41:25;5.43;;;3.78;;
7693;SDS011;3889;48.162;11.510;2022-07-26T03:43:53;4.07;;;3.30;;
7693;SDS011;3889;48.162;11.510;2022-07-26T03:46:21;5.60;;;3.58;;
7693;SDS011;3889;48.162;11.510;2022-07-26T03:48:49;4.95;;;3.50;;
7693;SDS011;3889;48.162;11.510;2022-07-26T03:51:17;4.47;;;3.67;;
7693;SDS011;3889;48.162;11.510;2022-07-26T03:53:45;4.03;;;3.50;;
7693;SDS011;3889;48.162;11.510;2022-07-26T03:56:15;4.43;;;3.70;;
7693;SDS011;3889;48.162;11.510;2022-07-26T03:58:54;4.10;;;3.30;;
7693;SDS011;3889;48.162;11.510;2022-07-26T04:01:22;4.40;;;3.50;;
7693;SDS011;3889;48.162;11.510;2022-07-26T04:03:50;4.38;;;3.97;;
7693;SDS011;3889;48.162;11.510;2022-07-26T04:06:18;4.68;;;3.80;;
7693;SDS011;3889;48.162;11.510;2022-07-26T04:08:48;4.95;;;3.80;;
7693;SDS011;3889;48.162;11.510;2022-07-26T04:11:17;4.18;;;3.78;;
7693;SDS011;3889;48.162;11.510;2022-07-26T04:13:45;4.43;;;3.88;;
7693;SDS011;3889;48.162;11.510;2022-07-26T04:16:13;5.15;;;3.78;;
7693;SDS011;3889;48.162;11.510;2022-07-26T04:18:41;5.18;;;4.00;;
7693;SDS011;3889;48.162;11.510;2022-07-26T04:21:09;4.20;;;3.75;;
7693;SDS011;3889;48.162;11.510;2022-07-26T04:23:37;4.55;;;4.00;;
7693;SDS011;3889;48.162;11.510;2022-07-26T04:26:05;4.10;;;3.70;;
7693;SDS011;3889;48.162;11.510;2022-07-26T04:28:34;5.18;;;4.07;;
7693;SDS011;3889;48.162;11.510;2022-07-26T04:31:02;4.72;;;4.32;;
7693;SDS011;3889;48.162;11.510;2022-07-26T04:33:30;5.85;;;4.30;;
7693;SDS011;3889;48.162;11.510;2022-07-26T04:35:58;4.90;;;3.88;;
7693;SDS011;3889;48.162;11.510;2022-07-26T04:38:26;6.32;;;4.18;;
7693;SDS011;3889;48.162;11.510;2022-07-26T04:40:54;4.65;;;4.15;;
7693;SDS011;3889;48.162;11.510;2022-07-26T04:43:23;4.68;;;3.75;;
7693;SDS011;3889;48.162;11.510;2022-07-26T04:45:52;5.23;;;3.87;;
7693;SDS011;3889;48.162;11.510;2022-07-26T04:48:22;4.95;;;4.25;;
7693;SDS011;3889;48.162;11.510;2022-07-26T04:50:50;5.00;;;3.80;;
7693;SDS011;3889;48.162;11.510;2022-07-26T04:53:19;4.90;;;3.60;;
7693;SDS011;3889;48.162;11.510;2022-07-26T04:55:47;4.03;;;3.63;;
7693;SDS011;3889;48.162;11.510;2022-07-26T04:58:15;6.35;;;3.83;;
7693;SDS011;3889;48.162;11.510;2022-07-26T05:00:45;4.70;;;4.03;;
7693;SDS011;3889;48.162;11.510;2022-07-26T05:03:34;4.57;;;4.07;;
7693;SDS011;3889;48.162;11.510;2022-07-26T05:06:02;4.93;;;3.92;;
7693;SDS011;3889;48.162;11.510;2022-07-26T05:08:30;4.60;;;4.10;;
7693;SDS011;3889;48.162;11.510;2022-07-26T05:10:58;4.68;;;3.70;;
7693;SDS011;3889;48.162;11.510;2022-07-26T05:13:26;4.80;;;4.07;;
7693;SDS011;3889;48.162;11.510;2022-07-26T05:15:57;5.30;;;4.13;;
7693;SDS011;3889;48.162;11.510;2022-07-26T05:18:27;5.57;;;4.20;;
7693;SDS011;3889;48.162;11.510;2022-07-26T05:21:15;4.82;;;4.00;;
7693;SDS011;3889;48.162;11.510;2022-07-26T05:23:44;6.10;;;4.10;;
7693;SDS011;3889;48.162;11.510;2022-07-26T05:26:12;5.03;;;4.25;;
7693;SDS011;3889;48.162;11.510;2022-07-26T05:28:40;4.32;;;3.92;;
7693;SDS011;3889;48.162;11.510;2022-07-26T05:31:08;5.82;;;3.92;;
7693;SDS011;3889;48.162;11.510;2022-07-26T05:33:36;4.45;;;3.95;;
7693;SDS011;3889;48.162;11.510;2022-07-26T05:36:04;5.53;;;4.03;;
7693;SDS011;3889;48.162;11.510;2022-07-26T05:38:33;6.68;;;4.05;;
7693;SDS011;3889;48.162;11.510;2022-07-26T05:41:01;4.07;;;3.75;;
7693;SDS011;3889;48.162;11.510;2022-07-26T05:43:29;5.00;;;3.60;;
7693;SDS011;3889;48.162;11.510;2022-07-26T05:46:07;5.88;;;3.88;;
7693;SDS011;3889;48.162;11.510;2022-07-26T05:48:36;5.40;;;3.83;;
7693;SDS011;3889;48.162;11.510;2022-07-26T05:51:04;4.37;;;3.53;;
7693;SDS011;3889;48.162;11.510;2022-07-26T05:53:33;4.18;;;3.78;;
7693;SDS011;3889;48.162;11.510;2022-07-26T05:56:02;5.32;;;3.65;;
7693;SDS011;3889;48.162;11.510;2022-07-26T05:58:30;5.05;;;3.95;;
7693;SDS011;3889;48.162;11.510;2022-07-26T06:00:58;4.50;;;3.60;;
7693;SDS011;3889;48.162;11.510;2022-07-26T06:03:26;5.63;;;3.83;;
7693;SDS011;3889;48.162;11.510;2022-07-26T06:05:55;5.20;;;4.07;;
7693;SDS011;3889;48.162;11.510;2022-07-26T06:08:25;4.95;;;3.55;;
7693;SDS011;3889;48.162;11.510;2022-07-26T06:10:54;5.68;;;3.90;;
7693;SDS011;3889;48.162;11.510;2022-07-26T06:13:23;4.70;;;4.05;;
7693;SDS011;3889;48.162;11.510;2022-07-26T06:15:51;5.15;;;3.92;;
7693;SDS011;3889;48.162;11.510;2022-07-26T06:18:19;5.15;;;4.38;;
7693;SDS011;3889;48.162;11.510;2022-07-26T06:20:47;5.47;;;3.92;;
7693;SDS011;3889;48.162;11.510;2022-07-26T06:23:15;5.37;;;4.00;;
7693;SDS011;3889;48.162;11.510;2022-07-26T06:26:00;5.05;;;4.13;;
7693;SDS011;3889;48.162;11.510;2022-07-26T06:28:29;4.60;;;4.00;;
7693;SDS011;3889;48.162;11.510;2022-07-26T06:30:58;4.65;;;4.18;;
7693;SDS011;3889;48.162;11.510;2022-07-26T06:33:25;4.63;;;4.22;;
7693;SDS011;3889;48.162;11.510;2022-07-26T06:35:53;4.72;;;4.00;;
7693;SDS011;3889;48.162;11.510;2022-07-26T06:38:21;5.07;;;4.30;;
7693;SDS011;3889;48.162;11.510;2022-07-26T06:40:49;5.03;;;4.28;;
7693;SDS011;3889;48.162;11.510;2022-07-26T06:43:18;7.38;;;4.07;;
7693;SDS011;3889;48.162;11.510;2022-07-26T06:45:46;5.57;;;4.57;;
7693;SDS011;3889;48.162;11.510;2022-07-26T06:48:15;5.40;;;4.85;;
7693;SDS011;3889;48.162;11.510;2022-07-26T06:50:43;5.20;;;4.70;;
7693;SDS011;3889;48.162;11.510;2022-07-26T06:53:11;5.38;;;4.45;;
7693;SDS011;3889;48.162;11.510;2022-07-26T06:55:39;5.65;;;4.72;;
7693;SDS011;3889;48.162;11.510;2022-07-26T06:58:07;6.68;;;4.43;;
7693;SDS011;3889;48.162;11.510;2022-07-26T07:00:37;5.10;;;4.60;;
7693;SDS011;3889;48.162;11.510;2022-07-26T07:03:05;5.95;;;4.20;;
7693;SDS011;3889;48.162;11.510;2022-07-26T07:05:33;5.17;;;4.43;;
7693;SDS011;3889;48.162;11.510;2022-07-26T07:08:01;5.10;;;4.45;;
7693;SDS011;3889;48.162;11.510;2022-07-26T07:10:31;5.00;;;4.40;;
7693;SDS011;3889;48.162;11.510;2022-07-26T07:12:59;5.30;;;4.70;;
7693;SDS011;3889;48.162;11.510;2022-07-26T07:15:27;5.70;;;4.72;;
7693;SDS011;3889;48.162;11.510;2022-07-26T07:17:56;5.70;;;3.80;;
7693;SDS011;3889;48.162;11.510;2022-07-26T07:20:24;5.70;;;3.63;;
7693;SDS011;3889;48.162;11.510;2022-07-26T07:22:53;3.90;;;3.50;;
7693;SDS011;3889;48.162;11.510;2022-07-26T07:25:21;4.45;;;3.47;;
7693;SDS011;3889;48.162;11.510;2022-07-26T07:27:56;4.97;;;3.50;;
7693;SDS011;3889;48.162;11.510;2022-07-26T07:30:24;5.65;;;3.45;;
7693;SDS011;3889;48.162;11.510;2022-07-26T07:32:53;5.10;;;3.42;;
7693;SDS011;3889;48.162;11.510;2022-07-26T07:35:23;4.63;;;3.30;;
7693;SDS011;3889;48.162;11.510;2022-07-26T07:37:57;4.63;;;3.33;;
7693;SDS011;3889;48.162;11.510;2022-07-26T07:40:25;5.28;;;3.60;;
7693;SDS011;3889;48.162;11.510;2022-07-26T07:42:55;5.00;;;3.80;;
7693;SDS011;3889;48.162;11.510;2022-07-26T07:45:23;5.18;;;3.50;;
7693;SDS011;3889;48.162;11.510;2022-07-26T07:47:51;4.30;;;3.33;;
7693;SDS011;3889;48.162;11.510;2022-07-26T07:50:18;4.93;;;3.50;;
7693;SDS011;3889;48.162;11.510;2022-07-26T07:52:48;4.72;;;3.42;;
7693;SDS011;3889;48.162;11.510;2022-07-26T07:55:15;4.47;;;3.80;;
7693;SDS011;3889;48.162;11.510;2022-07-26T07:58:03;5.43;;;3.80;;
7693;SDS011;3889;48.162;11.510;2022-07-26T08:00:31;3.65;;;3.25;;
7693;SDS011;3889;48.162;11.510;2022-07-26T08:02:59;3.65;;;3.10;;
7693;SDS011;3889;48.162;11.510;2022-07-26T08:05:27;4.55;;;3.13;;
7693;SDS011;3889;48.162;11.510;2022-07-26T08:07:56;3.53;;;2.53;;
7693;SDS011;3889;48.162;11.510;2022-07-26T08:10:24;4.32;;;2.90;;
7693;SDS011;3889;48.162;11.510;2022-07-26T08:12:52;5.40;;;3.40;;
7693;SDS011;3889;48.162;11.510;2022-07-26T08:15:21;5.13;;;3.20;;
7693;SDS011;3889;48.162;11.510;2022-07-26T08:17:49;4.47;;;3.20;;
7693;SDS011;3889;48.162;11.510;2022-07-26T08:20:20;4.00;;;2.80;;
7693;SDS011;3889;48.162;11.510;2022-07-26T08:22:50;3.65;;;2.90;;
7693;SDS011;3889;48.162;11.510;2022-07-26T08:25:19;5.15;;;3.35;;
7693;SDS011;3889;48.162;11.510;2022-07-26T08:27:47;5.35;;;3.60;;
7693;SDS011;3889;48.162;11.510;2022-07-26T08:30:28;5.32;;;3.00;;
7693;SDS011;3889;48.162;11.510;2022-07-26T08:32:56;3.33;;;2.72;;
7693;SDS011;3889;48.162;11.510;2022-07-26T08:35:24;3.50;;;3.10;;
7693;SDS011;3889;48.162;11.510;2022-07-26T08:37:54;4.83;;;3.60;;
7693;SDS011;3889;48.162;11.510;2022-07-26T08:40:23;3.88;;;3.10;;
7693;SDS011;3889;48.162;11.510;2022-07-26T08:42:52;4.38;;;3.33;;
7693;SDS011;3889;48.162;11.510;2022-07-26T08:45:22;3.80;;;3.03;;
7693;SDS011;3889;48.162;11.510;2022-07-26T08:47:50;3.87;;;3.07;;
7693;SDS011;3889;48.162;11.510;2022-07-26T08:50:38;3.72;;;2.80;;
7693;SDS011;3889;48.162;11.510;2022-07-26T08:53:07;2.78;;;2.58;;
7693;SDS011;3889;48.162;11.510;2022-07-26T08:55:38;2.85;;;2.55;;
7693;SDS011;3889;48.162;11.510;2022-07-26T08:58:26;3.53;;;2.78;;
7693;SDS011;3889;48.162;11.510;2022-07-26T09:01:04;6.20;;;3.00;;
7693;SDS011;3889;48.162;11.510;2022-07-26T09:03:34;3.78;;;2.75;;
7693;SDS011;3889;48.162;11.510;2022-07-26T09:06:10;3.88;;;2.85;;
7693;SDS011;3889;48.162;11.510;2022-07-26T09:08:40;3.53;;;2.60;;
7693;SDS011;3889;48.162;11.510;2022-07-26T09:11:30;3.45;;;2.50;;
7693;SDS011;3889;48.162;11.510;2022-07-26T09:13:59;3.08;;;2.42;;
7693;SDS011;3889;48.162;11.510;2022-07-26T09:16:29;3.33;;;2.80;;
7693;SDS011;3889;48.162;11.510;2022-07-26T09:19:13;2.75;;;2.25;;
7693;SDS011;3889;48.162;11.510;2022-07-26T09:21:43;2.90;;;2.60;;
7693;SDS011;3889;48.162;11.510;2022-07-26T09:24:11;2.70;;;2.22;;
7693;SDS011;3889;48.162;11.510;2022-07-26T09:26:40;2.72;;;2.33;;
7693;SDS011;3889;48.162;11.510;2022-07-26T09:29:21;3.10;;;2.75;;
7693;SDS011;3889;48.162;11.510;2022-07-26T09:31:49;2.70;;;2.50;;
7693;SDS011;3889;48.162;11.510;2022-07-26T09:34:22;3.10;;;2.33;;
7693;SDS011;3889;48.162;11.510;2022-07-26T09:36:52;4.22;;;2.60;;
7693;SDS011;3889;48.162;11.510;2022-07-26T09:39:20;3.40;;;2.42;;
7693;SDS011;3889;48.162;11.510;2022-07-26T09:42:06;3.05;;;2.50;;
7693;SDS011;3889;48.162;11.510;2022-07-26T09:44:55;3.92;;;2.50;;
7693;SDS011;3889;48.162;11.510;2022-07-26T09:50:28;2.75;;;2.42;;
7693;SDS011;3889;48.162;11.510;2022-07-26T09:53:01;4.32;;;2.60;;
7693;SDS011;3889;48.162;11.510;2022-07-26T09:55:36;2.50;;;2.30;;
7693;SDS011;3889;48.162;11.510;2022-07-26T09:58:23;2.90;;;2.28;;
7693;SDS011;3889;48.162;11.510;2022-07-26T10:00:51;3.05;;;2.67;;
7693;SDS011;3889;48.162;11.510;2022-07-26T10:03:27;2.67;;;2.47;;
7693;SDS011;3889;48.162;11.510;2022-07-26T10:05:56;4.47;;;2.85;;
7693;SDS011;3889;48.162;11.510;2022-07-26T10:08:25;2.60;;;2.40;;
7693;SDS011;3889;48.162;11.510;2022-07-26T10:10:54;3.22;;;2.40;;
7693;SDS011;3889;48.162;11.510;2022-07-26T10:13:31;5.35;;;2.90;;
7693;SDS011;3889;48.162;11.510;2022-07-26T10:15:58;2.80;;;2.47;;
7693;SDS011;3889;48.162;11.510;2022-07-26T10:18:43;3.23;;;2.60;;
7693;SDS011;3889;48.162;11.510;2022-07-26T10:21:20;3.17;;;2.27;;
7693;SDS011;3889;48.162;11.510;2022-07-26T10:23:50;6.13;;;2.42;;
7693;SDS011;3889;48.162;11.510;2022-07-26T10:26:34;3.00;;;2.40;;
7693;SDS011;3889;48.162;11.510;2022-07-26T10:29:26;3.50;;;2.78;;
7693;SDS011;3889;48.162;11.510;2022-07-26T10:32:14;4.10;;;2.50;;
7693;SDS011;3889;48.162;11.510;2022-07-26T10:34:45;3.60;;;2.50;;
7693;SDS011;3889;48.162;11.510;2022-07-26T10:37:21;2.67;;;2.40;;
7693;SDS011;3889;48.162;11.510;2022-07-26T10:42:47;3.47;;;2.28;;
7693;SDS011;3889;48.162;11.510;2022-07-26T10:45:17;3.90;;;2.17;;
7693;SDS011;3889;48.162;11.510;2022-07-26T10:48:09;2.30;;;2.10;;
7693;SDS011;3889;48.162;11.510;2022-07-26T10:50:42;2.25;;;2.00;;
7693;SDS011;3889;48.162;11.510;2022-07-26T10:53:15;3.00;;;1.92;;
7693;SDS011;3889;48.162;11.510;2022-07-26T10:55:45;2.78;;;2.05;;
7693;SDS011;3889;48.162;11.510;2022-07-26T10:58:14;2.80;;;2.00;;
7693;SDS011;3889;48.162;11.510;2022-07-26T11:00:54;2.83;;;2.15;;
7693;SDS011;3889;48.162;11.510;2022-07-26T11:03:24;2.53;;;1.98;;
7693;SDS011;3889;48.162;11.510;2022-07-26T11:06:11;3.47;;;2.22;;
7693;SDS011;3889;48.162;11.510;2022-07-26T11:08:39;2.70;;;1.90;;
7693;SDS011;3889;48.162;11.510;2022-07-26T11:11:13;2.47;;;1.80;;
7693;SDS011;3889;48.162;11.510;2022-07-26T11:14:02;3.50;;;2.40;;
7693;SDS011;3889;48.162;11.510;2022-07-26T11:16:36;3.65;;;1.95;;
7693;SDS011;3889;48.162;11.510;2022-07-26T11:19:12;2.60;;;1.92;;
7693;SDS011;3889;48.162;11.510;2022-07-26T11:21:42;3.30;;;1.80;;
7693;SDS011;3889;48.162;11.510;2022-07-26T11:24:11;3.53;;;2.47;;
7693;SDS011;3889;48.162;11.510;2022-07-26T11:26:39;2.80;;;2.08;;
7693;SDS011;3889;48.162;11.510;2022-07-26T11:29:08;2.90;;;1.60;;
7693;SDS011;3889;48.162;11.510;2022-07-26T11:31:44;2.70;;;1.67;;
7693;SDS011;3889;48.162;11.510;2022-07-26T11:34:25;1.73;;;1.50;;
7693;SDS011;3889;48.162;11.510;2022-07-26T11:36:55;2.10;;;1.90;;
7693;SDS011;3889;48.162;11.510;2022-07-26T11:39:26;4.70;;;1.50;;
7693;SDS011;3889;48.162;11.510;2022-07-26T11:41:55;2.33;;;1.50;;
7693;SDS011;3889;48.162;11.510;2022-07-26T11:44:26;3.17;;;1.88;;
7693;SDS011;3889;48.162;11.510;2022-07-26T11:46:56;2.40;;;1.63;;
7693;SDS011;3889;48.162;11.510;2022-07-26T11:49:25;2.10;;;1.90;;
7693;SDS011;3889;48.162;11.510;2022-07-26T11:52:15;2.58;;;1.63;;
7693;SDS011;3889;48.162;11.510;2022-07-26T11:54:51;3.80;;;1.88;;
7693;SDS011;3889;48.162;11.510;2022-07-26T11:57:20;3.33;;;1.90;;
7693;SDS011;3889;48.162;11.510;2022-07-26T11:59:53;2.08;;;1.88;;
7693;SDS011;3889;48.162;11.510;2022-07-26T12:02:23;2.72;;;1.95;;
7693;SDS011;3889;48.162;11.510;2022-07-26T12:05:07;2.97;;;2.20;;
7693;SDS011;3889;48.162;11.510;2022-07-26T12:07:50;2.45;;;2.00;;
7693;SDS011;3889;48.162;11.510;2022-07-26T12:10:23;2.13;;;1.92;;
7693;SDS011;3889;48.162;11.510;2022-07-26T12:13:04;3.20;;;1.90;;
7693;SDS011;3889;48.162;11.510;2022-07-26T12:15:42;2.67;;;1.98;;
7693;SDS011;3889;48.162;11.510;2022-07-26T12:18:19;2.50;;;2.10;;
7693;SDS011;3889;48.162;11.510;2022-07-26T12:20:58;3.22;;;1.90;;
7693;SDS011;3889;48.162;11.510;2022-07-26T12:23:41;2.50;;;2.20;;
7693;SDS011;3889;48.162;11.510;2022-07-26T12:26:20;2.17;;;1.98;;
7693;SDS011;3889;48.162;11.510;2022-07-26T12:28:48;2.20;;;1.92;;
7693;SDS011;3889;48.162;11.510;2022-07-26T12:31:23;3.97;;;1.98;;
7693;SDS011;3889;48.162;11.510;2022-07-26T12:33:53;2.10;;;1.80;;
7693;SDS011;3889;48.162;11.510;2022-07-26T12:36:22;2.78;;;2.08;;
7693;SDS011;3889;48.162;11.510;2022-07-26T12:38:53;4.20;;;2.10;;
7693;SDS011;3889;48.162;11.510;2022-07-26T12:41:31;1.83;;;1.70;;
7693;SDS011;3889;48.162;11.510;2022-07-26T12:44:02;4.90;;;1.98;;
7693;SDS011;3889;48.162;11.510;2022-07-26T12:46:30;2.53;;;1.90;;
7693;SDS011;3889;48.162;11.510;2022-07-26T12:49:00;2.08;;;1.88;;
7693;SDS011;3889;48.162;11.510;2022-07-26T12:51:29;4.27;;;1.83;;
7693;SDS011;3889;48.162;11.510;2022-07-26T12:53:57;2.65;;;1.85;;
7693;SDS011;3889;48.162;11.510;2022-07-26T12:56:25;3.10;;;1.85;;
7693;SDS011;3889;48.162;11.510;2022-07-26T12:58:53;2.03;;;1.83;;
7693;SDS011;3889;48.162;11.510;2022-07-26T13:01:26;1.90;;;1.70;;
7693;SDS011;3889;48.162;11.510;2022-07-26T13:03:54;2.83;;;1.70;;
7693;SDS011;3889;48.162;11.510;2022-07-26T13:06:23;3.65;;;2.10;;
7693;SDS011;3889;48.162;11.510;2022-07-26T13:08:51;2.00;;;1.70;;
7693;SDS011;3889;48.162;11.510;2022-07-26T13:11:19;2.88;;;1.95;;
7693;SDS011;3889;48.162;11.510;2022-07-26T13:13:47;3.65;;;1.73;;
7693;SDS011;3889;48.162;11.510;2022-07-26T13:16:15;2.72;;;2.00;;
7693;SDS011;3889;48.162;11.510;2022-07-26T13:18:44;2.97;;;1.80;;
7693;SDS011;3889;48.162;11.510;2022-07-26T13:21:12;3.38;;;2.30;;
7693;SDS011;3889;48.162;11.510;2022-07-26T13:23:41;2.80;;;2.38;;
7693;SDS011;3889;48.162;11.510;2022-07-26T13:26:09;2.20;;;2.00;;
7693;SDS011;3889;48.162;11.510;2022-07-26T13:28:37;2.65;;;1.75;;
7693;SDS011;3889;48.162;11.510;2022-07-26T13:31:06;2.33;;;1.90;;
7693;SDS011;3889;48.162;11.510;2022-07-26T13:33:35;2.78;;;2.13;;
7693;SDS011;3889;48.162;11.510;2022-07-26T13:36:04;3.15;;;1.90;;
7693;SDS011;3889;48.162;11.510;2022-07-26T13:38:32;2.65;;;2.10;;
7693;SDS011;3889;48.162;11.510;2022-07-26T13:41:02;2.38;;;1.90;;
7693;SDS011;3889;48.162;11.510;2022-07-26T13:43:30;2.20;;;2.00;;
7693;SDS011;3889;48.162;11.510;2022-07-26T13:45:58;3.13;;;2.17;;
7693;SDS011;3889;48.162;11.510;2022-07-26T13:48:26;4.32;;;2.22;;
7693;SDS011;3889;48.162;11.510;2022-07-26T13:50:54;2.35;;;1.92;;
7693;SDS011;3889;48.162;11.510;2022-07-26T13:53:23;2.30;;;1.83;;
7693;SDS011;3889;48.162;11.510;2022-07-26T13:55:51;2.22;;;1.90;;
7693;SDS011;3889;48.162;11.510;2022-07-26T13:58:20;2.00;;;1.80;;
7693;SDS011;3889;48.162;11.510;2022-07-26T14:00:48;2.60;;;2.00;;
7693;SDS011;3889;48.162;11.510;2022-07-26T14:03:16;2.25;;;1.90;;
7693;SDS011;3889;48.162;11.510;2022-07-26T14:05:44;3.28;;;2.10;;
7693;SDS011;3889;48.162;11.510;2022-07-26T14:08:12;2.30;;;2.10;;
7693;SDS011;3889;48.162;11.510;2022-07-26T14:10:40;2.10;;;1.90;;
7693;SDS011;3889;48.162;11.510;2022-07-26T14:13:08;2.35;;;2.15;;
7693;SDS011;3889;48.162;11.510;2022-07-26T14:15:38;2.40;;;2.08;;
7693;SDS011;3889;48.162;11.510;2022-07-26T14:18:05;2.70;;;2.05;;
7693;SDS011;3889;48.162;11.510;2022-07-26T14:20:33;2.47;;;1.80;;
7693;SDS011;3889;48.162;11.510;2022-07-26T14:23:01;3.08;;;2.20;;
7693;SDS011;3889;48.162;11.510;2022-07-26T14:25:29;3.20;;;2.15;;
7693;SDS011;3889;48.162;11.510;2022-07-26T14:27:58;2.78;;;2.00;;
7693;SDS011;3889;48.162;11.510;2022-07-26T14:30:26;2.55;;;2.10;;
7693;SDS011;3889;48.162;11.510;2022-07-26T14:32:55;4.90;;;2.15;;
7693;SDS011;3889;48.162;11.510;2022-07-26T14:35:23;2.33;;;2.00;;
7693;SDS011;3889;48.162;11.510;2022-07-26T14:37:51;2.35;;;2.00;;
7693;SDS011;3889;48.162;11.510;2022-07-26T14:40:19;3.30;;;2.17;;
7693;SDS011;3889;48.162;11.510;2022-07-26T14:42:47;3.07;;;2.00;;
7693;SDS011;3889;48.162;11.510;2022-07-26T14:45:15;2.60;;;2.10;;
7693;SDS011;3889;48.162;11.510;2022-07-26T14:47:43;4.40;;;2.08;;
7693;SDS011;3889;48.162;11.510;2022-07-26T14:50:13;2.57;;;1.90;;
7693;SDS011;3889;48.162;11.510;2022-07-26T14:52:43;3.58;;;2.30;;
7693;SDS011;3889;48.162;11.510;2022-07-26T14:55:12;3.00;;;2.17;;
7693;SDS011;3889;48.162;11.510;2022-07-26T14:57:48;3.03;;;2.38;;
7693;SDS011;3889;48.162;11.510;2022-07-26T15:00:16;3.10;;;2.30;;
7693;SDS011;3889;48.162;11.510;2022-07-26T15:02:45;3.10;;;2.22;;
7693;SDS011;3889;48.162;11.510;2022-07-26T15:05:16;2.20;;;2.00;;
7693;SDS011;3889;48.162;11.510;2022-07-26T15:07:44;2.30;;;2.10;;
7693;SDS011;3889;48.162;11.510;2022-07-26T15:10:13;2.97;;;2.03;;
7693;SDS011;3889;48.162;11.510;2022-07-26T15:12:41;3.75;;;2.17;;
7693;SDS011;3889;48.162;11.510;2022-07-26T15:15:10;3.30;;;2.10;;
7693;SDS011;3889;48.162;11.510;2022-07-26T15:17:38;2.75;;;2.03;;
7693;SDS011;3889;48.162;11.510;2022-07-26T15:20:06;4.30;;;2.20;;
7693;SDS011;3889;48.162;11.510;2022-07-26T15:22:36;2.95;;;2.20;;
7693;SDS011;3889;48.162;11.510;2022-07-26T15:25:04;2.40;;;2.20;;